• Join FlightAware (Why Join?)
  • Login
  • US Flag 
09:05AM EDT


 

Airport Tracker/Info


-or-


 

Live Flight TrackerFlight Track Log ✈ ASQ5992 ✈ 21-Apr-2012 ✈ KCAK - KORD

Flight Track Log - Related Links

Times and Time Zones

All times are in EDT time to prevent confusion due to time zone crossing. See the ASQ5992 flight status page for this flight to view local times or setup timezone preferences in your user account.

Time Position Orientation Groundspeed Altitude Reporting Facility
EDT Latitude Longitude Course Direction KTS MPH feet Rate Location/Type
11:04AM 40.9603 -81.4411 286° West 173 199 2,900  Level Cleveland Center
11:05AM 40.9725 -81.4989 250° West 203 234 4,500 2,100 Climbing Cleveland Center
11:06AM 40.9486 -81.5864 256° West 212 244 7,100 2,460 Climbing Cleveland Center
11:07AM 40.9311 -81.6769 277° West 232 267 9,500 1,860 Climbing Cleveland Center
11:08AM 40.9406 -81.7789 274° West 263 303 10,900 1,200 Climbing Cleveland Center
11:09AM 40.9456 -81.8833 279° West 297 342 11,900 1,200 Climbing Cleveland Center
11:10AM 40.9589 -82.0019 277° West 323 372 13,300 1,500 Climbing Cleveland Center
11:11AM 40.9697 -82.1231 278° West 339 390 14,900 1,800 Climbing Cleveland Center
11:12AM 40.9828 -82.2417 276° West 339 390 16,900 1,920 Climbing Cleveland Center
11:13AM 40.9914 -82.3547 277° West 327 376 18,800 1,440 Climbing Cleveland Center
11:14AM 41.0039 -82.4817 276° West 322 371 19,800 1,080 Climbing Cleveland Center
11:15AM 41.0144 -82.6086 276° West 336 387 21,000 1,260 Climbing Cleveland Center
11:16AM 41.0244 -82.7356 276° West 346 398 22,400 1,320 Climbing Cleveland Center
11:17AM 41.0344 -82.8625 277° West 352 405 23,700 1,200 Climbing Cleveland Center
11:18AM 41.0467 -82.9867 277° West 352 405 24,900 1,140 Climbing Cleveland Center
11:19AM 41.0583 -83.1139 278° West 347 399 26,000 540 Climbing Cleveland Center
11:20AM 41.0722 -83.2467 276° West 360 414 26,000  Level Cleveland Center
11:21AM 41.0833 -83.3903 276° West 383 441 26,000  Level Cleveland Center
11:22AM 41.0928 -83.5119 274° West 389 448 26,000 -420 Level Cleveland Center
11:23AM 41.1014 -83.6611 275° West 383 441 25,200 -1,500 Descending Cleveland Center
11:24AM 41.1103 -83.7856 277° West 358 412 23,100 -1,620 Descending Cleveland Center
11:25AM 41.1217 -83.9047 275° West 358 412 22,000 -480 Descending Cleveland Center
11:27AM 41.1367 -84.1300 276° West 376 433 22,000  Level Chicago Center
11:28AM 41.1472 -84.2725 280° West 388 447 22,000  Level Chicago Center
11:29AM 41.1661 -84.4147 282° West 400 460 22,000  Level Chicago Center
11:30AM 41.1892 -84.5647 282° West 407 468 22,000  Level Chicago Center
11:31AM 41.2119 -84.7094 282° West 407 468 22,000  Level Chicago Center
11:32AM 41.2369 -84.8678 282° West 407 468 22,000  Level Chicago Center
11:33AM 41.2592 -85.0128 282° West 407 468 22,000  Level Chicago Center
11:34AM 41.2814 -85.1578 281° West 407 468 22,000  Level Chicago Center
11:35AM 41.3033 -85.3028 282° West 407 468 22,000  Level Chicago Center
11:36AM 41.3272 -85.4508 280° West 407 468 22,000  Level Chicago Center
11:37AM 41.3467 -85.5989 282° West 407 468 22,000  Level Chicago Center
11:38AM 41.3678 -85.7306 282° West 407 468 22,000  Level Chicago Center
11:39AM 41.3908 -85.8733 281° West 407 468 22,000  Level Chicago Center
11:40AM 41.4119 -86.0189 281° West 407 468 22,000  Level Chicago Center
11:41AM 41.4325 -86.1619 281° West 407 468 22,000  Level Chicago Center
11:42AM 41.4556 -86.3189 280° West 407 468 22,000  Level Chicago Center
11:43AM 41.4742 -86.4647 281° West 407 468 22,000 -420 Level Chicago Center
11:44AM 41.4942 -86.6081 281° West 407 468 21,200 -1,440 Descending Chicago Center
11:45AM 41.5142 -86.7486 282° West 402 463 19,200 -1,980 Descending Chicago Center
11:46AM 41.5336 -86.8756 279° West 397 457 17,300 -2,040 Descending Chicago Center
11:47AM 41.5489 -87.0081 281° West 387 445 15,200 -2,100 Descending Chicago Center
11:48AM 41.5683 -87.1433 285° West 377 434 13,200 -2,100 Descending Chicago Center
11:48AM 41.5833 -87.2167 304° West 361 415 12,100 -840 Descending Chicago TRACON
11:49AM 41.6333 -87.3167 300° West 346 398 12,000 -120 Descending Chicago TRACON
11:50AM 41.6558 -87.3683 310° West 338 389 12,000  Level Chicago Center
11:51AM 41.7158 -87.4639 307° West 343 395 12,000 -480 Level Chicago Center
11:52AM 41.7653 -87.5514 310° West 324 373 11,100 -960 Descending Chicago Center
11:53AM 41.8081 -87.6200 290° West 281 323 10,100 -1,260 Descending Chicago Center
11:54AM 41.8278 -87.6947 265° West 248 285 8,600 -1,200 Descending Chicago Center
11:55AM 41.8228 -87.7783 264° West 218 251 7,700 -720 Descending Chicago Center
11:56AM 41.8175 -87.8511 245° Southwest 213 245 7,200 -360 Descending Chicago Center
11:58AM 41.7667 -88.0000 217° Southwest 212 244 6,700 -540 Descending Chicago TRACON
11:59AM 41.7333 -88.0333 289° West 203 234 5,600 -1,140 Descending Chicago TRACON
12:00PM 41.7500 -88.1000 360° North 194 223 4,600 -840 Descending Chicago TRACON
12:01PM 41.7833 -88.1000 48° Northeast 191 220 4,000 -300 Descending Chicago TRACON
12:02PM 41.8167 -88.0500 26° Northeast 180 207 4,000 -420 Level Chicago TRACON
12:03PM 41.8667 -88.0167 48° Northeast 176 203 3,200 -900 Descending Chicago TRACON
12:04PM 41.9000 -87.9667 37° Northeast 174 200 2,200 -900 Descending Chicago TRACON
12:05PM 41.9333 -87.9333 37° Northeast 128 147 1,400 -780 Descending Chicago TRACON